createdAt,value
2022-12-14T00:00:02.568Z,0
2022-12-14T00:15:03.155Z,0
2022-12-14T00:30:02.469Z,0
2022-12-14T00:45:03.145Z,0
2022-12-14T01:00:02.347Z,0
2022-12-14T01:15:02.781Z,0
2022-12-14T01:30:02.226Z,0
2022-12-14T01:45:02.664Z,0
2022-12-14T02:00:07.092Z,0
2022-12-14T02:15:03.515Z,0
2022-12-14T02:30:03.190Z,0
2022-12-14T02:45:02.401Z,0
2022-12-14T03:00:02.849Z,0
2022-12-14T03:15:02.277Z,0
2022-12-14T03:30:02.728Z,0
2022-12-14T03:45:03.223Z,0
2022-12-14T04:00:02.605Z,0
2022-12-14T04:15:03.212Z,0
2022-12-14T04:30:02.485Z,0
2022-12-14T04:45:02.927Z,0
2022-12-14T05:00:02.339Z,0
2022-12-14T05:15:02.796Z,0
2022-12-14T05:30:02.236Z,0
2022-12-14T05:45:02.660Z,0
2022-12-14T06:00:03.221Z,0
2022-12-14T06:15:02.536Z,0
2022-12-14T06:30:02.954Z,0
2022-12-14T06:45:02.383Z,0
2022-12-14T07:00:02.833Z,0
2022-12-14T07:15:03.270Z,0
2022-12-14T07:30:02.713Z,0
2022-12-14T07:45:03.262Z,0
2022-12-14T08:00:02.569Z,4
2022-12-14T08:15:03.302Z,8
2022-12-14T08:30:02.457Z,7
2022-12-14T08:45:02.925Z,9
2022-12-14T09:00:02.926Z,9
2022-12-14T09:15:02.795Z,14
2022-12-14T09:30:02.295Z,44
2022-12-14T09:45:02.681Z,149
2022-12-14T10:00:03.306Z,159
2022-12-14T10:15:02.568Z,240
2022-12-14T10:30:02.996Z,275
2022-12-14T10:45:31.532Z,310
2022-12-14T11:00:09.057Z,310
2022-12-14T11:15:02.316Z,297
2022-12-14T11:30:02.731Z,250
2022-12-14T11:45:03.328Z,249
2022-12-14T12:00:02.604Z,144
2022-12-14T12:15:03.065Z,242
2022-12-14T12:30:02.478Z,225
2022-12-14T12:45:02.914Z,204
2022-12-14T13:00:02.357Z,182
2022-12-14T13:15:02.806Z,160
2022-12-14T13:30:02.366Z,136
2022-12-14T13:45:02.649Z,110
2022-12-14T14:00:03.331Z,86
2022-12-14T14:15:02.543Z,62
2022-12-14T14:30:02.980Z,43
2022-12-14T14:45:02.405Z,15
2022-12-14T15:00:03.058Z,0
2022-12-14T15:15:02.371Z,0
2022-12-14T15:30:02.721Z,0
2022-12-14T15:45:03.375Z,0
2022-12-14T16:00:02.606Z,0
2022-12-14T16:15:03.076Z,0
2022-12-14T16:30:02.467Z,0
2022-12-14T16:45:02.913Z,0
2022-12-14T17:00:02.398Z,0
2022-12-14T17:15:02.810Z,0
2022-12-14T17:30:02.393Z,0
2022-12-14T17:45:02.701Z,0
2022-12-14T18:00:03.157Z,0
2022-12-14T18:15:02.577Z,0
2022-12-14T18:30:02.995Z,0
2022-12-14T18:45:02.442Z,0
2022-12-14T19:00:02.870Z,0
2022-12-14T19:15:02.424Z,0
2022-12-14T19:30:02.746Z,0
2022-12-14T19:45:03.380Z,0
2022-12-14T20:00:02.608Z,0
2022-12-14T20:15:03.063Z,0
2022-12-14T20:30:02.509Z,0
2022-12-14T20:45:07.061Z,0
2022-12-14T21:15:02.833Z,0
2022-12-14T21:30:02.458Z,0
2022-12-14T21:45:02.726Z,0
2022-12-14T22:00:03.174Z,0
2022-12-14T22:15:02.604Z,0
2022-12-14T22:30:03.023Z,0
2022-12-14T22:45:02.484Z,0
2022-12-14T23:00:02.899Z,0
2022-12-14T23:15:02.480Z,0
2022-12-14T23:30:02.782Z,0
2022-12-14T23:45:03.227Z,0
